Time;durP1;ratioP1;P1;durP2;ratioP2;P2;SDS_P1;SDS_P2;PMS_P1;PMS_P2;Temp;Humidity;BMP_temperature;BMP_pressure;BME280_temperature;BME280_humidity;BME280_pressure;Samples;Min_cycle;Max_cycle;Signal;HPM_P1;HPM_P2
2024/04/08 00:00:30;;;;;;;7.63;3.17;;;;;;;14.17;100.00;99750.38;11328090;26;19999;-38
2024/04/08 00:05:31;;;;;;;10.48;3.45;;;;;;;13.93;100.00;99765.09;11334038;26;20006;-38
2024/04/08 00:10:35;;;;;;;7.82;3.30;;;;;;;13.90;100.00;99779.97;11319814;26;20006;-40
2024/04/08 00:15:36;;;;;;;10.30;3.40;;;;;;;14.05;100.00;99780.09;11333191;26;20336;-39
2024/04/08 00:20:37;;;;;;;6.80;3.42;;;;;;;14.01;100.00;99775.66;11321446;26;19998;-39
2024/04/08 00:25:38;;;;;;;9.50;3.72;;;;;;;14.10;100.00;99781.00;11328096;26;20004;-38
2024/04/08 00:30:40;;;;;;;8.75;4.18;;;;;;;13.81;100.00;99808.78;11324856;26;19998;-38
2024/04/08 00:35:41;;;;;;;10.23;4.10;;;;;;;14.11;100.00;99822.19;11315728;26;19994;-39
2024/04/08 00:40:43;;;;;;;10.98;3.65;;;;;;;14.31;100.00;99803.06;11337803;26;20000;-41
2024/04/08 00:45:46;;;;;;;7.43;3.30;;;;;;;14.33;100.00;99810.06;11322534;26;19994;-38
2024/04/08 00:50:51;;;;;;;9.52;3.90;;;;;;;14.12;100.00;99841.47;11320515;26;20013;-40
2024/04/08 00:55:52;;;;;;;8.32;3.97;;;;;;;14.32;100.00;99833.75;11337191;26;20472;-38
2024/04/08 01:00:53;;;;;;;10.68;3.90;;;;;;;14.32;100.00;99795.19;11289142;26;19998;-38
2024/04/08 01:05:55;;;;;;;9.38;4.15;;;;;;;14.19;100.00;99787.22;11324564;26;20527;-38
2024/04/08 01:10:57;;;;;;;7.00;4.07;;;;;;;14.01;100.00;99773.03;11324376;26;20000;-38
2024/04/08 01:15:59;;;;;;;9.20;3.80;;;;;;;13.94;100.00;99779.13;11314398;26;20013;-38
2024/04/08 01:21:01;;;;;;;11.15;3.80;;;;;;;13.54;100.00;99789.25;11328612;26;20030;-39
2024/04/08 01:26:02;;;;;;;7.88;3.38;;;;;;;13.77;100.00;99794.72;11319903;26;20507;-39
2024/04/08 01:31:03;;;;;;;8.98;3.58;;;;;;;13.88;100.00;99779.94;11323571;26;20010;-38
2024/04/08 01:36:05;;;;;;;6.82;3.60;;;;;;;13.82;100.00;99756.22;11327369;26;20075;-38
2024/04/08 01:41:06;;;;;;;7.13;3.40;;;;;;;13.51;100.00;99769.94;11318052;26;19998;-39
2024/04/08 01:46:07;;;;;;;6.38;3.60;;;;;;;13.53;100.00;99784.84;11300774;26;20016;-38
2024/04/08 01:51:09;;;;;;;7.75;3.63;;;;;;;13.54;100.00;99793.59;11331841;26;19998;-39
2024/04/08 01:56:11;;;;;;;8.25;3.22;;;;;;;13.54;100.00;99791.88;11323286;26;20072;-38
2024/04/08 02:01:12;;;;;;;11.00;3.70;;;;;;;13.22;100.00;99817.72;11342827;26;20002;-39
2024/04/08 02:06:13;;;;;;;8.25;3.67;;;;;;;13.22;100.00;99805.50;11320167;26;20440;-39
2024/04/08 02:11:14;;;;;;;9.57;3.90;;;;;;;13.40;100.00;99790.84;11285904;26;19999;-40
2024/04/08 02:16:16;;;;;;;8.60;3.90;;;;;;;13.49;100.00;99775.19;11328490;26;20008;-40
2024/04/08 02:21:17;;;;;;;9.05;3.95;;;;;;;13.30;100.00;99810.84;11327216;26;20009;-38
2024/04/08 02:26:18;;;;;;;9.13;3.92;;;;;;;13.61;100.00;99830.47;11333747;26;20009;-38
2024/04/08 02:31:19;;;;;;;9.32;3.85;;;;;;;13.76;100.00;99827.09;11296018;26;20027;-38
2024/04/08 02:36:20;;;;;;;8.05;3.45;;;;;;;13.80;100.00;99801.78;11335304;26;20009;-38
2024/04/08 02:41:21;;;;;;;7.97;3.83;;;;;;;13.82;100.00;99752.72;11333019;26;20463;-39
2024/04/08 02:46:22;;;;;;;9.73;3.70;;;;;;;13.34;100.00;99751.41;11324049;26;20013;-39
2024/04/08 02:51:24;;;;;;;6.45;3.80;;;;;;;13.41;100.00;99727.84;11341582;26;20444;-38
2024/04/08 02:56:25;;;;;;;8.73;3.80;;;;;;;13.28;100.00;99738.22;11323213;26;20017;-38
2024/04/08 03:01:26;;;;;;;10.20;4.13;;;;;;;13.36;100.00;99745.31;11329400;26;19999;-38
2024/04/08 03:06:29;;;;;;;8.38;4.05;;;;;;;13.52;100.00;99738.47;11331769;26;20003;-38
2024/04/08 03:11:30;;;;;;;8.35;4.05;;;;;;;13.62;100.00;99721.94;11322238;26;20010;-38
2024/04/08 03:16:31;;;;;;;9.88;4.30;;;;;;;13.60;100.00;99712.28;11328271;26;20444;-38
2024/04/08 03:21:32;;;;;;;7.28;3.80;;;;;;;13.56;100.00;99731.50;11328656;26;20003;-39
2024/04/08 03:26:34;;;;;;;9.93;4.15;;;;;;;13.54;100.00;99731.50;11319422;26;20482;-38
2024/04/08 03:31:36;;;;;;;8.20;4.15;;;;;;;13.51;100.00;99717.44;11333188;26;20010;-39
2024/04/08 03:36:38;;;;;;;11.77;4.60;;;;;;;13.20;100.00;99715.38;11329979;26;19995;-39
2024/04/08 03:41:39;;;;;;;9.52;4.93;;;;;;;13.01;100.00;99713.41;11325155;26;20012;-38
2024/04/08 03:46:40;;;;;;;12.70;5.03;;;;;;;13.13;100.00;99707.41;11331357;26;20440;-38
2024/04/08 03:51:41;;;;;;;10.95;5.85;;;;;;;12.83;100.00;99692.22;11317933;26;19998;-39
2024/04/08 03:56:43;;;;;;;8.95;5.53;;;;;;;12.81;100.00;99678.19;11330534;26;20002;-39
2024/04/08 04:01:44;;;;;;;14.38;6.55;;;;;;;12.65;100.00;99667.53;11290862;26;20030;-41
2024/04/08 04:06:45;;;;;;;9.80;5.75;;;;;;;12.73;100.00;99649.28;11321146;26;20018;-40
2024/04/08 04:11:46;;;;;;;14.95;5.97;;;;;;;12.83;100.00;99624.03;11331606;26;20078;-39
2024/04/08 04:16:51;;;;;;;14.65;7.35;;;;;;;12.50;100.00;99609.69;11320929;26;19998;-37
2024/04/08 04:21:52;;;;;;;10.60;6.80;;;;;;;12.70;100.00;99612.53;11327167;26;19998;-38
2024/04/08 04:26:53;;;;;;;11.05;6.50;;;;;;;12.75;100.00;99621.34;11334862;26;20480;-38
2024/04/08 04:31:54;;;;;;;14.32;6.45;;;;;;;12.79;100.00;99646.72;11319013;26;20006;-38
2024/04/08 04:36:55;;;;;;;13.73;6.70;;;;;;;12.94;100.00;99656.47;11331620;26;19998;-39
2024/04/08 04:41:57;;;;;;;12.40;6.78;;;;;;;12.86;100.00;99653.78;11325324;26;20014;-38
2024/04/08 04:46:58;;;;;;;13.50;7.05;;;;;;;12.86;100.00;99645.91;11320718;26;19998;-38
2024/04/08 04:51:59;;;;;;;14.77;7.15;;;;;;;12.81;100.00;99629.25;11328243;26;20013;-38
2024/04/08 04:57:00;;;;;;;11.88;7.55;;;;;;;12.82;100.00;99630.16;11316113;26;20352;-38
2024/04/08 05:02:01;;;;;;;13.50;8.25;;;;;;;12.77;100.00;99624.84;11332892;26;20474;-39
2024/04/08 05:07:02;;;;;;;15.32;8.35;;;;;;;12.73;100.00;99629.19;11292449;26;20013;-39
2024/04/08 05:12:04;;;;;;;16.13;7.70;;;;;;;12.73;100.00;99642.28;11315758;26;19999;-40
2024/04/08 05:17:05;;;;;;;16.60;8.00;;;;;;;12.84;100.00;99652.00;11337759;26;20317;-39
2024/04/08 05:22:08;;;;;;;13.20;8.38;;;;;;;12.89;100.00;99652.94;11321776;26;20470;-40
2024/04/08 05:27:10;;;;;;;15.27;8.27;;;;;;;12.93;100.00;99644.25;11321287;26;20018;-39
2024/04/08 05:32:11;;;;;;;17.30;9.30;;;;;;;12.76;100.00;99618.72;11330178;26;20002;-39
2024/04/08 05:37:12;;;;;;;17.20;9.23;;;;;;;12.60;100.00;99608.94;11313667;26;19995;-40
2024/04/08 05:42:13;;;;;;;13.48;8.25;;;;;;;12.63;100.00;99603.72;11321080;26;20439;-40
2024/04/08 05:47:14;;;;;;;15.75;7.85;;;;;;;12.70;100.00;99612.53;11328877;26;20002;-42
2024/04/08 05:52:16;;;;;;;11.98;7.13;;;;;;;12.56;100.00;99630.75;11318332;26;19999;-39
2024/04/08 05:57:18;;;;;;;14.35;7.22;;;;;;;12.63;100.00;99632.56;11324782;26;20011;-41
2024/04/08 06:02:19;;;;;;;12.23;6.65;;;;;;;12.61;100.00;99647.38;11324866;26;20365;-40
2024/04/08 06:07:20;;;;;;;15.38;6.40;;;;;;;12.73;100.00;99647.53;11323586;26;19999;-41
2024/04/08 06:12:21;;;;;;;12.60;6.18;;;;;;;12.88;100.00;99638.09;11329783;26;19998;-40
2024/04/08 06:17:22;;;;;;;15.13;6.60;;;;;;;12.87;100.00;99636.31;11317109;26;20064;-41
2024/04/08 06:22:23;;;;;;;11.05;5.60;;;;;;;12.86;100.00;99637.19;11328653;26;20485;-40
2024/04/08 06:27:25;;;;;;;10.13;5.80;;;;;;;12.95;100.00;99629.41;11319883;26;20016;-39
2024/04/08 06:32:26;;;;;;;12.93;6.22;;;;;;;12.97;100.00;99627.66;11334200;26;20002;-40
2024/04/08 06:37:27;;;;;;;10.77;6.25;;;;;;;12.98;100.00;99621.56;11334596;26;20013;-40
2024/04/08 06:42:28;;;;;;;12.13;6.50;;;;;;;13.02;100.00;99613.72;11320147;26;20003;-40
2024/04/08 06:47:29;;;;;;;12.00;6.45;;;;;;;13.06;100.00;99619.88;11333424;26;20003;-40
2024/04/08 06:52:31;;;;;;;15.20;7.22;;;;;;;13.06;100.00;99609.38;11335587;26;20003;-39
2024/04/08 06:57:32;;;;;;;16.88;7.35;;;;;;;13.13;100.00;99623.44;11325082;26;20003;-39
2024/04/08 07:02:33;;;;;;;18.45;8.55;;;;;;;13.19;100.00;99624.41;11331672;26;20018;-41
2024/04/08 07:07:34;;;;;;;12.07;7.47;;;;;;;13.44;100.00;99606.25;11332699;26;20158;-38
2024/04/08 07:12:35;;;;;;;16.90;7.35;;;;;;;13.65;100.00;99619.56;11334570;26;20005;-39
2024/04/08 07:17:37;;;;;;;13.57;6.80;;;;;;;14.06;100.00;99624.19;11323244;26;20012;-40
2024/04/08 07:22:38;;;;;;;13.68;6.68;;;;;;;14.33;100.00;99619.94;11327404;26;20317;-39
2024/04/08 07:27:39;;;;;;;12.18;6.40;;;;;;;14.43;100.00;99607.69;11329406;26;19994;-39
2024/04/08 07:32:40;;;;;;;13.82;6.20;;;;;;;14.58;100.00;99595.53;11327338;26;20070;-40
2024/04/08 07:37:42;;;;;;;11.13;6.60;;;;;;;14.76;100.00;99591.19;11327181;26;19994;-40
2024/04/08 07:42:43;;;;;;;13.90;6.15;;;;;;;14.82;100.00;99596.47;11326825;26;20006;-40
2024/04/08 07:47:45;;;;;;;12.70;5.88;;;;;;;15.15;100.00;99597.38;11319310;26;19999;-40
2024/04/08 07:52:46;;;;;;;14.07;6.53;;;;;;;15.22;100.00;99593.88;11343821;26;19994;-39
2024/04/08 07:57:48;;;;;;;12.05;6.15;;;;;;;15.16;100.00;99593.88;11325018;26;20009;-40
2024/04/08 08:02:49;;;;;;;11.95;6.20;;;;;;;15.13;100.00;99592.13;11323320;26;19990;-39
2024/04/08 08:07:50;;;;;;;11.07;6.45;;;;;;;15.07;100.00;99594.75;11328435;26;19998;-39
2024/04/08 08:12:51;;;;;;;14.85;7.25;;;;;;;15.06;100.00;99588.63;11316409;26;19998;-40
2024/04/08 08:17:54;;;;;;;12.98;6.88;;;;;;;15.15;100.00;99595.63;11328751;26;20006;-40
2024/04/08 08:22:56;;;;;;;11.88;7.63;;;;;;;15.29;100.00;99587.75;11327942;26;20010;-40
2024/04/08 08:27:58;;;;;;;13.68;6.40;;;;;;;15.33;100.00;99581.59;11321536;26;19998;-40
2024/04/08 08:32:59;;;;;;;14.75;7.18;;;;;;;15.20;100.00;99579.84;11330039;26;20013;-40
2024/04/08 08:38:00;;;;;;;17.02;7.45;;;;;;;15.53;100.00;99574.56;11324240;26;20010;-40
2024/04/08 08:43:01;;;;;;;14.00;7.60;;;;;;;15.38;100.00;99561.44;11296363;26;20328;-40
2024/04/08 08:48:04;;;;;;;14.40;8.32;;;;;;;15.36;100.00;99564.94;11336385;26;20436;-40
2024/04/08 08:53:05;;;;;;;14.05;8.50;;;;;;;15.47;100.00;99558.75;11320053;26;20249;-40
2024/04/08 08:58:07;;;;;;;14.38;8.90;;;;;;;15.54;100.00;99557.91;11335943;26;20002;-40
2024/04/08 09:03:13;;;;;;;13.20;8.40;;;;;;;15.63;100.00;99546.44;11288925;26;19994;-39
2024/04/08 09:08:14;;;;;;;16.98;9.77;;;;;;;15.71;100.00;99546.47;11280550;26;20096;-40
2024/04/08 09:13:22;;;;;;;14.57;9.20;;;;;;;15.73;100.00;99532.44;11326696;26;20002;-42
2024/04/08 09:18:26;;;;;;;14.98;8.70;;;;;;;15.94;100.00;99531.47;11318721;26;20339;-40
2024/04/08 09:23:32;;;;;;;18.10;9.43;;;;;;;16.09;100.00;99529.66;11328472;26;20007;-40
2024/04/08 09:28:33;;;;;;;15.45;9.13;;;;;;;16.18;100.00;99525.22;11329246;26;20500;-39
2024/04/08 09:33:34;;;;;;;12.43;8.48;;;;;;;16.44;100.00;99516.31;11284184;26;20021;-40
2024/04/08 09:38:35;;;;;;;14.52;9.10;;;;;;;16.40;100.00;99512.81;11300559;26;20010;-39
2024/04/08 09:43:37;;;;;;;17.20;9.15;;;;;;;16.51;100.00;99511.88;11320597;26;19998;-40
2024/04/08 09:48:38;;;;;;;16.17;8.77;;;;;;;16.76;100.00;99513.50;11329939;26;19998;-39
2024/04/08 09:53:39;;;;;;;12.52;7.70;;;;;;;16.91;100.00;99515.16;11320323;26;20074;-39
2024/04/08 09:58:40;;;;;;;16.38;8.70;;;;;;;16.88;100.00;99526.59;11313351;26;20442;-40
2024/04/08 10:03:45;;;;;;;15.30;9.13;;;;;;;16.82;100.00;99523.13;11329465;26;19998;-41
2024/04/08 10:08:47;;;;;;;16.48;9.32;;;;;;;16.71;100.00;99534.59;11293872;26;20593;-41
2024/04/08 10:13:49;;;;;;;15.10;7.82;;;;;;;16.81;100.00;99526.63;11323584;26;19998;-40
2024/04/08 10:18:56;;;;;;;15.27;8.43;;;;;;;16.98;100.00;99518.59;11339783;26;20040;-41
2024/04/08 10:23:58;;;;;;;16.27;8.18;;;;;;;16.88;100.00;99510.75;11325071;26;20016;-40
2024/04/08 10:28:59;;;;;;;15.52;9.00;;;;;;;17.02;100.00;99518.56;11331065;26;20471;-40
2024/04/08 10:34:00;;;;;;;14.77;8.63;;;;;;;17.30;100.00;99507.75;11335726;26;20013;-41
2024/04/08 10:39:08;;;;;;;15.25;9.85;;;;;;;17.11;100.00;99509.69;11326115;26;20078;-40
2024/04/08 10:44:09;;;;;;;16.77;8.98;;;;;;;17.53;100.00;99500.47;11332073;26;20472;-40
2024/04/08 10:49:10;;;;;;;12.25;8.13;;;;;;;17.75;100.00;99495.81;11325304;26;20050;-40
2024/04/08 10:54:12;;;;;;;22.38;9.15;;;;;;;17.77;100.00;99495.84;11297043;26;20487;-39
2024/04/08 10:59:13;;;;;;;14.50;9.10;;;;;;;17.75;100.00;99494.97;11273070;26;20012;-40
2024/04/08 11:04:14;;;;;;;14.68;9.15;;;;;;;17.86;100.00;99503.69;11319024;26;20009;-40
2024/04/08 11:09:16;;;;;;;15.95;8.88;;;;;;;17.89;100.00;99502.75;11338993;26;19999;-41
2024/04/08 11:14:17;;;;;;;18.92;9.35;;;;;;;17.77;100.00;99507.31;11327351;26;20000;-39
2024/04/08 11:19:18;;;;;;;16.92;9.15;;;;;;;17.81;100.00;99503.72;11319871;26;20067;-40
2024/04/08 11:24:19;;;;;;;16.95;9.55;;;;;;;17.86;100.00;99503.69;11333199;26;20005;-40
2024/04/08 11:29:20;;;;;;;14.48;9.70;;;;;;;17.94;100.00;99499.16;11337798;26;19994;-42
2024/04/08 11:34:21;;;;;;;17.80;9.35;;;;;;;18.24;100.00;99500.56;11325614;26;20011;-40
2024/04/08 11:39:23;;;;;;;16.25;9.45;;;;;;;18.36;100.00;99499.50;11325734;26;19995;-41
2024/04/08 11:44:40;;;;;;;17.98;9.20;;;;;;;18.42;100.00;99493.25;11323284;26;20011;-39
2024/04/08 11:49:42;;;;;;;18.57;8.30;;;;;;;18.62;100.00;99493.84;11324224;26;20020;-40
2024/04/08 11:54:43;;;;;;;16.83;8.13;;;;;;;18.61;100.00;99489.44;11323107;26;20436;-40
2024/04/08 11:59:44;;;;;;;18.80;8.52;;;;;;;18.68;100.00;99492.84;11329870;26;20014;-40
2024/04/08 12:04:46;;;;;;;17.45;9.10;;;;;;;18.74;100.00;99474.25;11329608;26;19998;-40
2024/04/08 12:09:47;;;;;;;16.35;7.75;;;;;;;18.96;100.00;99462.41;11321821;26;20006;-40
2024/04/08 12:14:48;;;;;;;17.55;7.68;;;;;;;18.94;100.00;99451.00;11329824;26;20326;-40
2024/04/08 12:19:50;;;;;;;13.15;8.10;;;;;;;18.81;100.00;99424.75;11333700;26;20323;-40
2024/04/08 12:24:51;;;;;;;14.38;7.35;;;;;;;18.53;100.00;99414.59;11316818;26;20002;-41
2024/04/08 12:29:53;;;;;;;18.15;8.40;;;;;;;18.31;100.00;99408.75;11328067;26;20008;-40
2024/04/08 12:34:54;;;;;;;17.42;7.97;;;;;;;18.46;100.00;99405.88;11333333;26;19990;-40
2024/04/08 12:39:56;;;;;;;18.10;7.30;;;;;;;18.68;100.00;99394.91;11322468;26;19994;-40
2024/04/08 12:44:57;;;;;;;16.88;7.55;;;;;;;18.73;100.00;99401.94;11327101;26;19994;-40
2024/04/08 12:49:58;;;;;;;15.55;7.90;;;;;;;18.62;100.00;99403.88;11322879;26;20332;-40
2024/04/08 12:55:00;;;;;;;16.02;7.72;;;;;;;18.65;100.00;99410.84;11327703;26;20062;-40
2024/04/08 13:00:01;;;;;;;15.13;7.03;;;;;;;19.03;100.00;99404.97;11293530;26;20466;-39
2024/04/08 13:05:02;;;;;;;15.45;7.10;;;;;;;19.22;100.00;99411.66;11325998;26;20458;-40
2024/04/08 13:10:05;;;;;;;18.83;7.93;;;;;;;19.15;100.00;99412.66;11333338;26;19998;-41
2024/04/08 13:15:06;;;;;;;13.60;7.50;;;;;;;19.28;100.00;99412.41;11322730;26;20013;-40
2024/04/08 13:20:07;;;;;;;15.18;8.20;;;;;;;19.33;100.00;99399.97;11324780;26;20002;-40
2024/04/08 13:25:08;;;;;;;12.32;6.95;;;;;;;19.57;100.00;99402.16;11328341;26;19998;-41
2024/04/08 13:30:10;;;;;;;18.63;7.80;;;;;;;19.47;100.00;99396.16;11291212;26;19999;-40
2024/04/08 13:35:12;;;;;;;15.95;7.78;;;;;;;19.27;100.00;99394.78;11295327;26;19994;-40
2024/04/08 13:40:13;;;;;;;16.27;7.47;;;;;;;19.49;100.00;99396.09;11329593;26;20006;-40
2024/04/08 13:45:15;;;;;;;17.40;7.60;;;;;;;19.75;100.00;99392.94;11314384;26;20566;-40
2024/04/08 13:50:16;;;;;;;18.55;7.50;;;;;;;19.91;100.00;99396.13;11340206;26;20010;-40
2024/04/08 13:55:17;;;;;;;17.02;8.38;;;;;;;19.88;100.00;99390.91;11305609;26;19994;-40
2024/04/08 14:00:18;;;;;;;16.15;7.53;;;;;;;19.86;100.00;99377.69;11332040;26;20509;-40
2024/04/08 14:05:19;;;;;;;15.30;7.30;;;;;;;19.99;100.00;99388.03;11331394;26;20012;-41
2024/04/08 14:10:20;;;;;;;15.85;6.68;;;;;;;20.07;100.00;99378.09;11323520;26;20469;-40
2024/04/08 14:15:22;;;;;;;12.32;5.70;;;;;;;19.89;100.00;99377.63;11337241;26;20007;-42
2024/04/08 14:20:23;;;;;;;17.23;5.80;;;;;;;19.98;100.00;99383.59;11323189;26;20351;-41
2024/04/08 14:25:24;;;;;;;16.20;6.00;;;;;;;20.01;100.00;99391.50;11327378;26;20014;-41
2024/04/08 14:30:25;;;;;;;13.32;5.90;;;;;;;20.09;100.00;99385.13;11303686;26;19999;-40
2024/04/08 14:35:26;;;;;;;16.63;6.13;;;;;;;20.34;100.00;99388.06;11297778;26;20010;-40
2024/04/08 14:40:28;;;;;;;15.52;6.30;;;;;;;20.13;100.00;99388.56;11334043;26;20010;-39
2024/04/08 14:45:30;;;;;;;10.52;6.30;;;;;;;19.85;100.00;99375.06;11335089;26;19998;-40
2024/04/08 14:50:31;;;;;;;14.07;6.78;;;;;;;19.57;100.00;99364.13;11325940;26;20362;-39
2024/04/08 14:55:32;;;;;;;12.77;6.60;;;;;;;19.43;100.00;99348.53;11331113;26;20440;-38
2024/04/08 15:00:33;;;;;;;15.07;5.90;;;;;;;19.19;100.00;99357.88;11324558;26;20009;-41
2024/04/08 15:05:34;;;;;;;16.83;5.93;;;;;;;19.02;100.00;99358.16;11339961;26;20003;-40
2024/04/08 15:10:36;;;;;;;11.40;5.85;;;;;;;18.83;100.00;99340.88;11325132;26;19998;-40
2024/04/08 15:15:37;;;;;;;12.13;6.22;;;;;;;18.74;100.00;99337.50;11323267;26;20426;-41
2024/04/08 15:20:38;;;;;;;15.25;6.47;;;;;;;18.70;100.00;99329.59;11334759;26;20586;-40
2024/04/08 15:25:39;;;;;;;10.77;5.53;;;;;;;18.67;100.00;99313.78;11324003;26;20019;-40
2024/04/08 15:30:41;;;;;;;13.15;5.95;;;;;;;18.68;100.00;99287.31;11329371;26;20765;-40
2024/04/08 15:35:42;;;;;;;14.27;5.95;;;;;;;18.81;100.00;99301.22;11335872;26;19998;-40
2024/04/08 15:40:51;;;;;;;10.82;6.00;;;;;;;19.01;100.00;99284.94;11321235;26;20001;-40
2024/04/08 15:46:03;;;;;;;12.05;6.00;;;;;;;19.63;100.00;99280.06;11304384;26;20352;-40
2024/04/08 15:51:05;;;;;;;32.95;21.00;;;;;;;20.08;100.00;99274.63;11332400;26;20475;-39
2024/04/08 15:56:07;;;;;;;14.82;6.18;;;;;;;20.17;100.00;99266.44;11338395;26;20002;-39
2024/04/08 16:01:08;;;;;;;12.63;5.55;;;;;;;20.28;100.00;99265.28;11337045;26;19998;-39
2024/04/08 16:06:10;;;;;;;13.40;5.88;;;;;;;20.36;100.00;99273.91;11351903;26;19998;-40
2024/04/08 16:11:21;;;;;;;12.18;5.25;;;;;;;20.32;100.00;99266.94;11339719;26;20010;-39
2024/04/08 16:16:22;;;;;;;34.90;20.42;;;;;;;20.36;100.00;99264.19;11337199;26;20009;-41
2024/04/08 16:21:24;;;;;;;15.85;6.72;;;;;;;20.32;100.00;99251.88;11325916;26;19999;-39
2024/04/08 16:26:25;;;;;;;11.73;5.10;;;;;;;20.18;100.00;99254.03;11300149;26;20013;-39
2024/04/08 16:31:26;;;;;;;10.88;4.63;;;;;;;20.13;100.00;99255.94;11336487;26;20063;-39
2024/04/08 16:36:27;;;;;;;11.57;4.78;;;;;;;20.09;100.00;99249.84;11345572;26;20016;-41
2024/04/08 16:41:29;;;;;;;11.45;5.03;;;;;;;20.06;100.00;99241.94;11342214;26;20006;-40
2024/04/08 16:46:30;;;;;;;11.05;5.22;;;;;;;19.97;100.00;99236.88;11301498;26;20381;-39
2024/04/08 16:51:34;;;;;;;13.35;5.20;;;;;;;19.84;100.00;99225.69;11337201;26;20001;-39
2024/04/08 16:56:35;;;;;;;18.33;5.40;;;;;;;19.70;100.00;99230.47;11322485;26;20006;-39
2024/04/08 17:01:36;;;;;;;16.15;6.20;;;;;;;19.55;100.00;99218.41;11320778;26;20017;-40
2024/04/08 17:06:38;;;;;;;15.27;5.47;;;;;;;19.40;100.00;99216.09;11334035;26;19993;-40
2024/04/08 17:11:39;;;;;;;15.45;6.18;;;;;;;19.24;100.00;99218.22;11320285;26;20008;-40
2024/04/08 17:16:40;;;;;;;13.38;6.85;;;;;;;19.09;100.00;99207.94;11326110;26;20379;-40
2024/04/08 17:21:42;;;;;;;14.25;5.90;;;;;;;18.94;100.00;99198.59;11294518;26;20013;-39
2024/04/08 17:26:43;;;;;;;13.68;6.15;;;;;;;18.76;100.00;99176.88;11320141;26;20512;-39
2024/04/08 17:31:45;;;;;;;11.60;5.70;;;;;;;18.63;100.00;99178.00;11330401;26;20016;-40
2024/04/08 17:36:48;;;;;;;13.50;5.95;;;;;;;18.48;100.00;99175.66;11321982;26;19998;-39
2024/04/08 17:41:51;;;;;;;16.20;6.63;;;;;;;18.31;100.00;99173.34;11331974;26;20522;-38
2024/04/08 17:46:52;;;;;;;13.10;6.88;;;;;;;18.15;100.00;99162.16;11323129;26;20013;-40
2024/04/08 17:51:53;;;;;;;16.75;7.22;;;;;;;18.05;100.00;99163.25;11314352;26;20010;-40
2024/04/08 17:56:55;;;;;;;11.82;7.00;;;;;;;17.94;100.00;99168.69;11326481;26;20013;-39
2024/04/08 18:01:56;;;;;;;17.67;7.68;;;;;;;17.80;100.00;99176.00;11321256;26;20100;-39
2024/04/08 18:07:02;;;;;;;17.08;7.88;;;;;;;17.72;100.00;99177.88;11315063;26;20099;-41
2024/04/08 18:12:03;;;;;;;11.15;7.25;;;;;;;17.65;100.00;99166.53;11331179;26;20034;-40
2024/04/08 18:17:04;;;;;;;16.52;6.70;;;;;;;17.48;100.00;99169.44;11320659;26;20006;-40
2024/04/08 18:22:06;;;;;;;16.92;7.40;;;;;;;17.42;100.00;99173.97;11319579;26;20047;-40
2024/04/08 18:27:07;;;;;;;14.18;7.30;;;;;;;17.32;100.00;99163.53;11330250;26;20002;-39
2024/04/08 18:32:10;;;;;;;17.13;7.70;;;;;;;17.31;100.00;99158.25;11319146;26;20513;-40
2024/04/08 18:37:12;;;;;;;19.23;8.50;;;;;;;17.26;100.00;99153.06;11332034;26;19998;-40
2024/04/08 18:42:14;;;;;;;17.98;9.25;;;;;;;17.21;100.00;99152.22;11323665;26;20344;-40
2024/04/08 18:47:15;;;;;;;21.92;10.25;;;;;;;17.14;100.00;99146.19;11326555;26;20082;-40
2024/04/08 18:52:16;;;;;;;19.92;9.68;;;;;;;17.10;100.00;99154.19;11324329;26;20030;-39
2024/04/08 18:57:17;;;;;;;21.23;9.43;;;;;;;17.05;100.00;99156.00;11323372;26;19994;-39
2024/04/08 19:02:18;;;;;;;20.92;8.55;;;;;;;17.02;100.00;99150.75;11342451;26;20086;-39
2024/04/08 19:07:21;;;;;;;15.20;8.60;;;;;;;17.00;100.00;99139.34;11337250;26;20673;-39
2024/04/08 19:12:23;;;;;;;16.55;8.30;;;;;;;16.96;100.00;99142.91;11322705;26;20433;-46
2024/04/08 19:17:24;;;;;;;13.45;7.50;;;;;;;16.91;100.00;99127.16;11340827;26;20006;-40
2024/04/08 19:22:25;;;;;;;15.80;7.75;;;;;;;16.89;100.00;99121.03;11338027;26;20512;-40
2024/04/08 19:27:27;;;;;;;17.02;7.97;;;;;;;16.83;100.00;99121.97;11327243;26;20504;-40
2024/04/08 19:32:28;;;;;;;15.18;8.25;;;;;;;16.80;100.00;99116.72;11331604;26;20095;-40
2024/04/08 19:37:29;;;;;;;14.05;8.07;;;;;;;16.78;100.00;99121.19;11312771;26;20034;-40
2024/04/08 19:42:30;;;;;;;16.52;8.45;;;;;;;16.76;100.00;99125.59;11332158;26;20010;-39
2024/04/08 19:47:33;;;;;;;14.80;7.80;;;;;;;16.74;100.00;99110.63;11329527;26;19999;-40
2024/04/08 19:52:34;;;;;;;17.30;8.07;;;;;;;16.65;100.00;99090.53;11286117;26;20026;-40
2024/04/08 19:57:35;;;;;;;13.18;7.32;;;;;;;16.57;100.00;99080.09;11330760;26;19998;-41
2024/04/08 20:02:37;;;;;;;17.92;7.32;;;;;;;16.56;100.00;99072.22;11272250;26;20010;-38
2024/04/08 20:07:39;;;;;;;15.27;7.55;;;;;;;16.54;100.00;99058.16;11302750;26;20009;-39
2024/04/08 20:12:40;;;;;;;17.73;8.30;;;;;;;16.54;100.00;99050.25;11329315;26;20002;-38
2024/04/08 20:17:41;;;;;;;14.98;8.00;;;;;;;16.55;100.00;99041.44;11319069;26;20013;-38
2024/04/08 20:22:44;;;;;;;14.25;7.10;;;;;;;16.55;100.00;99049.34;11326769;26;19998;-39
2024/04/08 20:27:48;;;;;;;15.68;7.32;;;;;;;16.55;100.00;99065.16;11288310;26;19998;-38
2024/04/08 20:32:50;;;;;;;15.82;6.65;;;;;;;16.59;100.00;99062.47;11345436;26;20014;-38
2024/04/08 20:37:51;;;;;;;15.07;7.80;;;;;;;16.65;100.00;99083.50;11346647;26;20002;-39
2024/04/08 20:42:52;;;;;;;17.00;7.60;;;;;;;16.75;100.00;99086.03;11313153;26;19998;-38
2024/04/08 20:47:53;;;;;;;13.95;7.25;;;;;;;16.79;100.00;99079.84;11344432;26;20016;-43
2024/04/08 20:52:55;;;;;;;12.50;7.40;;;;;;;16.77;100.00;99078.97;11343852;26;20049;-40
2024/04/08 20:57:56;;;;;;;18.58;7.80;;;;;;;16.75;100.00;99080.75;11314539;26;20013;-39
2024/04/08 21:02:57;;;;;;;15.52;7.20;;;;;;;16.75;100.00;99079.00;11345736;26;20006;-38
2024/04/08 21:07:59;;;;;;;17.70;7.13;;;;;;;16.70;100.00;99071.09;11346466;26;20020;-38
2024/04/08 21:13:00;;;;;;;16.35;6.78;;;;;;;16.73;100.00;99072.84;11343737;26;20055;-38
2024/04/08 21:18:01;;;;;;;19.50;7.05;;;;;;;16.69;100.00;99064.09;11314188;26;19998;-38
2024/04/08 21:23:02;;;;;;;16.38;6.57;;;;;;;16.65;100.00;99077.34;11343519;26;20343;-38
2024/04/08 21:28:03;;;;;;;16.90;6.38;;;;;;;16.63;100.00;99073.88;11345874;26;19998;-38
2024/04/08 21:33:05;;;;;;;17.50;6.60;;;;;;;16.63;100.00;99058.03;11346020;26;20024;-38
2024/04/08 21:38:06;;;;;;;16.55;7.05;;;;;;;16.62;100.00;99029.91;11347248;26;20095;-39
2024/04/08 21:43:07;;;;;;;18.05;6.60;;;;;;;16.56;100.00;99051.09;11345085;26;20093;-38
2024/04/08 21:48:08;;;;;;;16.73;7.13;;;;;;;16.50;100.00;99053.81;11343864;26;19998;-38
2024/04/08 21:53:13;;;;;;;13.90;6.32;;;;;;;16.50;100.00;99035.38;11345200;26;20000;-38
2024/04/08 21:58:14;;;;;;;13.60;6.10;;;;;;;16.47;100.00;99020.44;11324695;26;20010;-38
2024/04/08 22:03:16;;;;;;;16.42;6.78;;;;;;;16.45;100.00;99014.31;11320193;26;20320;-38
2024/04/08 22:08:17;;;;;;;16.70;6.55;;;;;;;16.43;100.00;99006.44;11309429;26;19994;-38
2024/04/08 22:13:18;;;;;;;21.50;6.50;;;;;;;16.42;100.00;98993.25;11333628;26;20327;-39
2024/04/08 22:18:19;;;;;;;17.80;6.50;;;;;;;16.37;100.00;98988.06;11332130;26;20003;-38
2024/04/08 22:23:21;;;;;;;16.00;5.90;;;;;;;16.38;100.00;98987.16;11341979;26;19994;-38
2024/04/08 22:28:22;;;;;;;18.27;5.43;;;;;;;16.37;100.00;98984.56;11323912;26;20001;-38
2024/04/08 22:33:23;;;;;;;14.02;5.35;;;;;;;16.35;100.00;98976.66;11336668;26;20005;-38
2024/04/08 22:38:24;;;;;;;16.65;5.53;;;;;;;16.31;100.00;98980.22;11330684;26;20047;-42
2024/04/08 22:43:25;;;;;;;15.90;5.20;;;;;;;16.35;100.00;98968.75;11254249;26;20031;-39
2024/04/08 22:48:26;;;;;;;14.48;5.28;;;;;;;16.21;100.00;98957.53;11263304;26;20323;-38